sensor_id;sensor_type;location;lat;lon;timestamp;P1;durP1;ratioP1;P2;durP2;ratioP2
25263;SDS011;13211;51.796;5.808;2022-08-21T00:03:34;9.63;;;4.22;;
25263;SDS011;13211;51.796;5.808;2022-08-21T00:06:02;7.75;;;3.65;;
25263;SDS011;13211;51.796;5.808;2022-08-21T00:08:30;8.27;;;3.63;;
25263;SDS011;13211;51.796;5.808;2022-08-21T00:10:58;10.07;;;4.20;;
25263;SDS011;13211;51.796;5.808;2022-08-21T00:13:26;12.93;;;4.15;;
25263;SDS011;13211;51.796;5.808;2022-08-21T00:15:54;8.15;;;3.88;;
25263;SDS011;13211;51.796;5.808;2022-08-21T00:18:21;10.25;;;4.00;;
25263;SDS011;13211;51.796;5.808;2022-08-21T00:20:50;6.32;;;3.90;;
25263;SDS011;13211;51.796;5.808;2022-08-21T00:23:21;7.00;;;4.18;;
25263;SDS011;13211;51.796;5.808;2022-08-21T00:25:48;8.35;;;3.80;;
25263;SDS011;13211;51.796;5.808;2022-08-21T00:28:16;9.88;;;3.92;;
25263;SDS011;13211;51.796;5.808;2022-08-21T00:30:45;8.50;;;4.10;;
25263;SDS011;13211;51.796;5.808;2022-08-21T00:33:13;13.27;;;4.20;;
25263;SDS011;13211;51.796;5.808;2022-08-21T00:35:41;8.23;;;4.07;;
25263;SDS011;13211;51.796;5.808;2022-08-21T00:38:10;6.15;;;3.95;;
25263;SDS011;13211;51.796;5.808;2022-08-21T00:40:41;7.32;;;3.72;;
25263;SDS011;13211;51.796;5.808;2022-08-21T00:43:10;9.30;;;4.22;;
25263;SDS011;13211;51.796;5.808;2022-08-21T00:45:40;7.68;;;3.90;;
25263;SDS011;13211;51.796;5.808;2022-08-21T00:48:08;9.98;;;4.35;;
25263;SDS011;13211;51.796;5.808;2022-08-21T00:50:38;7.50;;;4.55;;
25263;SDS011;13211;51.796;5.808;2022-08-21T00:53:09;11.60;;;4.80;;
25263;SDS011;13211;51.796;5.808;2022-08-21T00:55:39;18.92;;;4.63;;
25263;SDS011;13211;51.796;5.808;2022-08-21T00:58:09;9.02;;;4.45;;
25263;SDS011;13211;51.796;5.808;2022-08-21T01:00:43;7.78;;;4.47;;
25263;SDS011;13211;51.796;5.808;2022-08-21T01:03:15;10.38;;;3.97;;
25263;SDS011;13211;51.796;5.808;2022-08-21T01:05:49;10.95;;;4.68;;
25263;SDS011;13211;51.796;5.808;2022-08-21T01:08:19;9.05;;;4.35;;
25263;SDS011;13211;51.796;5.808;2022-08-21T01:10:49;7.82;;;4.72;;
25263;SDS011;13211;51.796;5.808;2022-08-21T01:13:24;14.85;;;4.68;;
25263;SDS011;13211;51.796;5.808;2022-08-21T01:15:54;9.73;;;4.65;;
25263;SDS011;13211;51.796;5.808;2022-08-21T01:18:24;11.43;;;4.90;;
25263;SDS011;13211;51.796;5.808;2022-08-21T01:23:46;7.95;;;4.40;;
25263;SDS011;13211;51.796;5.808;2022-08-21T01:26:17;11.07;;;4.60;;
25263;SDS011;13211;51.796;5.808;2022-08-21T01:28:51;8.95;;;4.53;;
25263;SDS011;13211;51.796;5.808;2022-08-21T01:31:22;10.23;;;4.90;;
25263;SDS011;13211;51.796;5.808;2022-08-21T01:33:51;11.98;;;4.82;;
25263;SDS011;13211;51.796;5.808;2022-08-21T01:36:20;12.82;;;4.90;;
25263;SDS011;13211;51.796;5.808;2022-08-21T01:38:48;8.85;;;4.53;;
25263;SDS011;13211;51.796;5.808;2022-08-21T01:41:17;8.73;;;4.28;;
25263;SDS011;13211;51.796;5.808;2022-08-21T01:43:45;7.57;;;4.28;;
25263;SDS011;13211;51.796;5.808;2022-08-21T01:46:13;8.65;;;4.53;;
25263;SDS011;13211;51.796;5.808;2022-08-21T01:48:42;9.55;;;4.55;;
25263;SDS011;13211;51.796;5.808;2022-08-21T01:51:10;8.40;;;4.72;;
25263;SDS011;13211;51.796;5.808;2022-08-21T01:53:39;11.25;;;4.90;;
25263;SDS011;13211;51.796;5.808;2022-08-21T01:56:08;11.27;;;5.00;;
25263;SDS011;13211;51.796;5.808;2022-08-21T01:58:39;7.85;;;4.30;;
25263;SDS011;13211;51.796;5.808;2022-08-21T02:01:07;7.47;;;4.20;;
25263;SDS011;13211;51.796;5.808;2022-08-21T02:03:38;9.02;;;4.70;;
25263;SDS011;13211;51.796;5.808;2022-08-21T02:06:06;8.90;;;4.18;;
25263;SDS011;13211;51.796;5.808;2022-08-21T02:08:39;11.80;;;4.80;;
25263;SDS011;13211;51.796;5.808;2022-08-21T02:11:07;10.15;;;4.50;;
25263;SDS011;13211;51.796;5.808;2022-08-21T02:13:35;9.27;;;4.72;;
25263;SDS011;13211;51.796;5.808;2022-08-21T02:16:03;8.82;;;4.40;;
25263;SDS011;13211;51.796;5.808;2022-08-21T02:18:31;9.25;;;4.32;;
25263;SDS011;13211;51.796;5.808;2022-08-21T02:20:58;12.50;;;4.72;;
25263;SDS011;13211;51.796;5.808;2022-08-21T02:23:26;10.38;;;5.18;;
25263;SDS011;13211;51.796;5.808;2022-08-21T02:25:56;10.27;;;4.55;;
25263;SDS011;13211;51.796;5.808;2022-08-21T02:28:25;9.13;;;4.63;;
25263;SDS011;13211;51.796;5.808;2022-08-21T02:30:55;7.47;;;4.20;;
25263;SDS011;13211;51.796;5.808;2022-08-21T02:33:23;10.43;;;4.05;;
25263;SDS011;13211;51.796;5.808;2022-08-21T02:35:51;7.20;;;3.97;;
25263;SDS011;13211;51.796;5.808;2022-08-21T02:38:21;14.45;;;3.50;;
25263;SDS011;13211;51.796;5.808;2022-08-21T02:40:51;5.68;;;3.78;;
25263;SDS011;13211;51.796;5.808;2022-08-21T02:43:21;5.03;;;3.30;;
25263;SDS011;13211;51.796;5.808;2022-08-21T02:45:50;7.63;;;3.60;;
25263;SDS011;13211;51.796;5.808;2022-08-21T02:48:19;5.45;;;3.60;;
25263;SDS011;13211;51.796;5.808;2022-08-21T02:50:56;5.40;;;2.83;;
25263;SDS011;13211;51.796;5.808;2022-08-21T02:53:28;6.47;;;3.40;;
25263;SDS011;13211;51.796;5.808;2022-08-21T02:55:57;4.95;;;2.75;;
25263;SDS011;13211;51.796;5.808;2022-08-21T02:58:28;8.25;;;3.30;;
25263;SDS011;13211;51.796;5.808;2022-08-21T03:00:58;11.02;;;3.03;;
25263;SDS011;13211;51.796;5.808;2022-08-21T03:03:27;4.80;;;3.08;;
25263;SDS011;13211;51.796;5.808;2022-08-21T03:05:57;5.90;;;3.33;;
25263;SDS011;13211;51.796;5.808;2022-08-21T03:08:28;8.98;;;3.72;;
25263;SDS011;13211;51.796;5.808;2022-08-21T03:10:56;7.13;;;4.10;;
25263;SDS011;13211;51.796;5.808;2022-08-21T03:13:27;7.57;;;3.95;;
25263;SDS011;13211;51.796;5.808;2022-08-21T03:15:55;8.48;;;3.90;;
25263;SDS011;13211;51.796;5.808;2022-08-21T03:18:24;8.43;;;3.80;;
25263;SDS011;13211;51.796;5.808;2022-08-21T03:20:52;6.95;;;4.03;;
25263;SDS011;13211;51.796;5.808;2022-08-21T03:23:20;11.73;;;3.92;;
25263;SDS011;13211;51.796;5.808;2022-08-21T03:25:47;8.90;;;3.83;;
25263;SDS011;13211;51.796;5.808;2022-08-21T03:28:22;6.80;;;3.33;;
25263;SDS011;13211;51.796;5.808;2022-08-21T03:30:51;6.63;;;3.70;;
25263;SDS011;13211;51.796;5.808;2022-08-21T03:33:20;10.70;;;4.30;;
25263;SDS011;13211;51.796;5.808;2022-08-21T03:35:53;7.55;;;4.35;;
25263;SDS011;13211;51.796;5.808;2022-08-21T03:38:24;10.73;;;4.38;;
25263;SDS011;13211;51.796;5.808;2022-08-21T03:40:52;11.02;;;4.78;;
25263;SDS011;13211;51.796;5.808;2022-08-21T03:43:20;5.68;;;4.28;;
25263;SDS011;13211;51.796;5.808;2022-08-21T03:45:48;7.43;;;4.15;;
25263;SDS011;13211;51.796;5.808;2022-08-21T03:48:18;7.93;;;4.15;;
25263;SDS011;13211;51.796;5.808;2022-08-21T03:50:46;5.72;;;4.20;;
25263;SDS011;13211;51.796;5.808;2022-08-21T03:53:16;7.22;;;4.40;;
25263;SDS011;13211;51.796;5.808;2022-08-21T03:55:45;6.55;;;4.10;;
25263;SDS011;13211;51.796;5.808;2022-08-21T03:58:15;7.57;;;4.45;;
25263;SDS011;13211;51.796;5.808;2022-08-21T04:00:45;8.10;;;5.18;;
25263;SDS011;13211;51.796;5.808;2022-08-21T04:03:14;6.95;;;4.80;;
25263;SDS011;13211;51.796;5.808;2022-08-21T04:05:43;7.18;;;4.78;;
25263;SDS011;13211;51.796;5.808;2022-08-21T04:08:13;9.85;;;4.80;;
25263;SDS011;13211;51.796;5.808;2022-08-21T04:10:41;9.60;;;5.80;;
25263;SDS011;13211;51.796;5.808;2022-08-21T04:13:12;12.75;;;5.60;;
25263;SDS011;13211;51.796;5.808;2022-08-21T04:15:41;11.43;;;5.50;;
25263;SDS011;13211;51.796;5.808;2022-08-21T04:18:10;11.52;;;5.70;;
25263;SDS011;13211;51.796;5.808;2022-08-21T04:20:38;9.50;;;6.38;;
25263;SDS011;13211;51.796;5.808;2022-08-21T04:23:10;13.68;;;7.10;;
25263;SDS011;13211;51.796;5.808;2022-08-21T04:25:49;12.32;;;6.53;;
25263;SDS011;13211;51.796;5.808;2022-08-21T04:28:17;17.95;;;7.00;;
25263;SDS011;13211;51.796;5.808;2022-08-21T04:30:45;12.43;;;6.35;;
25263;SDS011;13211;51.796;5.808;2022-08-21T04:33:13;13.18;;;6.15;;
25263;SDS011;13211;51.796;5.808;2022-08-21T04:35:40;12.05;;;6.28;;
25263;SDS011;13211;51.796;5.808;2022-08-21T04:38:08;9.82;;;5.50;;
25263;SDS011;13211;51.796;5.808;2022-08-21T04:40:36;13.50;;;6.53;;
25263;SDS011;13211;51.796;5.808;2022-08-21T04:43:06;10.70;;;6.80;;
25263;SDS011;13211;51.796;5.808;2022-08-21T04:45:37;13.43;;;6.65;;
25263;SDS011;13211;51.796;5.808;2022-08-21T04:48:07;14.60;;;8.18;;
25263;SDS011;13211;51.796;5.808;2022-08-21T04:50:54;14.52;;;8.45;;
25263;SDS011;13211;51.796;5.808;2022-08-21T04:56:19;18.88;;;9.52;;
25263;SDS011;13211;51.796;5.808;2022-08-21T04:58:49;13.55;;;9.55;;
25263;SDS011;13211;51.796;5.808;2022-08-21T05:01:20;14.43;;;9.73;;
25263;SDS011;13211;51.796;5.808;2022-08-21T05:03:52;13.15;;;9.40;;
25263;SDS011;13211;51.796;5.808;2022-08-21T05:06:24;15.95;;;10.07;;
25263;SDS011;13211;51.796;5.808;2022-08-21T05:08:56;19.50;;;11.38;;
25263;SDS011;13211;51.796;5.808;2022-08-21T05:11:32;18.95;;;10.52;;
25263;SDS011;13211;51.796;5.808;2022-08-21T05:14:01;17.80;;;10.85;;
25263;SDS011;13211;51.796;5.808;2022-08-21T05:16:29;22.33;;;12.27;;
25263;SDS011;13211;51.796;5.808;2022-08-21T05:19:04;17.92;;;11.90;;
25263;SDS011;13211;51.796;5.808;2022-08-21T05:21:33;13.30;;;10.00;;
25263;SDS011;13211;51.796;5.808;2022-08-21T05:24:02;17.23;;;11.07;;
25263;SDS011;13211;51.796;5.808;2022-08-21T05:26:30;31.80;;;12.50;;
25263;SDS011;13211;51.796;5.808;2022-08-21T05:29:08;23.77;;;16.15;;
25263;SDS011;13211;51.796;5.808;2022-08-21T05:31:38;32.80;;;17.65;;
25263;SDS011;13211;51.796;5.808;2022-08-21T05:34:06;24.48;;;16.92;;
25263;SDS011;13211;51.796;5.808;2022-08-21T05:36:33;39.53;;;20.92;;
25263;SDS011;13211;51.796;5.808;2022-08-21T05:39:01;32.40;;;18.98;;
25263;SDS011;13211;51.796;5.808;2022-08-21T05:41:31;38.30;;;23.15;;
25263;SDS011;13211;51.796;5.808;2022-08-21T05:43:59;39.83;;;24.15;;
25263;SDS011;13211;51.796;5.808;2022-08-21T05:46:28;35.72;;;21.55;;
25263;SDS011;13211;51.796;5.808;2022-08-21T05:48:56;34.97;;;21.45;;
25263;SDS011;13211;51.796;5.808;2022-08-21T05:51:23;30.67;;;21.92;;
25263;SDS011;13211;51.796;5.808;2022-08-21T05:53:51;33.05;;;21.77;;
25263;SDS011;13211;51.796;5.808;2022-08-21T05:56:19;51.08;;;23.55;;
25263;SDS011;13211;51.796;5.808;2022-08-21T05:58:52;30.67;;;21.30;;
25263;SDS011;13211;51.796;5.808;2022-08-21T06:01:19;39.70;;;21.48;;
25263;SDS011;13211;51.796;5.808;2022-08-21T06:03:47;31.38;;;21.23;;
25263;SDS011;13211;51.796;5.808;2022-08-21T06:06:14;29.50;;;19.80;;
25263;SDS011;13211;51.796;5.808;2022-08-21T06:08:42;30.48;;;19.45;;
25263;SDS011;13211;51.796;5.808;2022-08-21T06:11:10;38.13;;;20.63;;
25263;SDS011;13211;51.796;5.808;2022-08-21T06:13:38;35.33;;;19.02;;
25263;SDS011;13211;51.796;5.808;2022-08-21T06:16:08;34.77;;;19.30;;
25263;SDS011;13211;51.796;5.808;2022-08-21T06:18:43;32.17;;;19.17;;
25263;SDS011;13211;51.796;5.808;2022-08-21T06:21:12;36.50;;;18.60;;
25263;SDS011;13211;51.796;5.808;2022-08-21T06:23:40;29.92;;;18.48;;
25263;SDS011;13211;51.796;5.808;2022-08-21T06:26:09;32.95;;;17.55;;
25263;SDS011;13211;51.796;5.808;2022-08-21T06:28:39;34.20;;;18.37;;
25263;SDS011;13211;51.796;5.808;2022-08-21T06:33:40;29.95;;;16.42;;
25263;SDS011;13211;51.796;5.808;2022-08-21T06:36:08;32.45;;;16.13;;
25263;SDS011;13211;51.796;5.808;2022-08-21T06:38:36;33.78;;;15.77;;
25263;SDS011;13211;51.796;5.808;2022-08-21T06:41:04;32.83;;;15.55;;
25263;SDS011;13211;51.796;5.808;2022-08-21T06:43:35;32.65;;;15.10;;
25263;SDS011;13211;51.796;5.808;2022-08-21T06:46:04;25.30;;;13.02;;
25263;SDS011;13211;51.796;5.808;2022-08-21T06:48:34;26.70;;;13.17;;
25263;SDS011;13211;51.796;5.808;2022-08-21T06:51:02;28.25;;;13.10;;
25263;SDS011;13211;51.796;5.808;2022-08-21T06:53:31;24.88;;;13.07;;
25263;SDS011;13211;51.796;5.808;2022-08-21T06:55:59;27.23;;;13.18;;
25263;SDS011;13211;51.796;5.808;2022-08-21T06:58:28;27.10;;;13.35;;
25263;SDS011;13211;51.796;5.808;2022-08-21T07:00:58;31.60;;;12.38;;
25263;SDS011;13211;51.796;5.808;2022-08-21T07:03:28;27.73;;;11.57;;
25263;SDS011;13211;51.796;5.808;2022-08-21T07:06:01;25.83;;;10.73;;
25263;SDS011;13211;51.796;5.808;2022-08-21T07:08:29;27.15;;;10.98;;
25263;SDS011;13211;51.796;5.808;2022-08-21T07:11:00;34.17;;;11.07;;
25263;SDS011;13211;51.796;5.808;2022-08-21T07:13:31;21.23;;;10.13;;
25263;SDS011;13211;51.796;5.808;2022-08-21T07:15:59;24.87;;;10.60;;
25263;SDS011;13211;51.796;5.808;2022-08-21T07:18:31;26.48;;;10.52;;
25263;SDS011;13211;51.796;5.808;2022-08-21T07:21:03;34.08;;;10.52;;
25263;SDS011;13211;51.796;5.808;2022-08-21T07:23:38;25.98;;;11.02;;
25263;SDS011;13211;51.796;5.808;2022-08-21T07:26:09;36.60;;;11.15;;
25263;SDS011;13211;51.796;5.808;2022-08-21T07:28:37;24.23;;;10.48;;
25263;SDS011;13211;51.796;5.808;2022-08-21T07:31:05;23.90;;;11.10;;
25263;SDS011;13211;51.796;5.808;2022-08-21T07:33:34;24.58;;;10.77;;
25263;SDS011;13211;51.796;5.808;2022-08-21T07:36:02;27.25;;;11.23;;
25263;SDS011;13211;51.796;5.808;2022-08-21T07:38:31;23.77;;;9.93;;
25263;SDS011;13211;51.796;5.808;2022-08-21T07:40:59;31.52;;;9.75;;
25263;SDS011;13211;51.796;5.808;2022-08-21T07:43:29;32.67;;;10.35;;
25263;SDS011;13211;51.796;5.808;2022-08-21T07:45:57;30.92;;;9.70;;
25263;SDS011;13211;51.796;5.808;2022-08-21T07:48:26;24.85;;;10.10;;
25263;SDS011;13211;51.796;5.808;2022-08-21T07:50:53;29.70;;;10.30;;
25263;SDS011;13211;51.796;5.808;2022-08-21T07:53:21;25.70;;;9.18;;
25263;SDS011;13211;51.796;5.808;2022-08-21T07:55:50;24.77;;;8.55;;
25263;SDS011;13211;51.796;5.808;2022-08-21T07:58:18;19.70;;;8.52;;
25263;SDS011;13211;51.796;5.808;2022-08-21T08:00:46;28.13;;;9.55;;
25263;SDS011;13211;51.796;5.808;2022-08-21T08:03:14;27.10;;;8.48;;
25263;SDS011;13211;51.796;5.808;2022-08-21T08:05:54;27.27;;;8.10;;
25263;SDS011;13211;51.796;5.808;2022-08-21T08:08:24;25.33;;;7.80;;
25263;SDS011;13211;51.796;5.808;2022-08-21T08:10:51;25.67;;;7.50;;
25263;SDS011;13211;51.796;5.808;2022-08-21T08:13:24;20.70;;;7.78;;
25263;SDS011;13211;51.796;5.808;2022-08-21T08:15:52;23.02;;;6.88;;
25263;SDS011;13211;51.796;5.808;2022-08-21T08:18:19;19.45;;;6.70;;
25263;SDS011;13211;51.796;5.808;2022-08-21T08:20:48;21.02;;;6.35;;
25263;SDS011;13211;51.796;5.808;2022-08-21T08:23:16;23.10;;;6.72;;
25263;SDS011;13211;51.796;5.808;2022-08-21T08:25:50;22.13;;;6.28;;
25263;SDS011;13211;51.796;5.808;2022-08-21T08:28:18;15.73;;;5.13;;
25263;SDS011;13211;51.796;5.808;2022-08-21T08:30:46;23.00;;;5.50;;
25263;SDS011;13211;51.796;5.808;2022-08-21T08:33:14;21.63;;;5.38;;
25263;SDS011;13211;51.796;5.808;2022-08-21T08:35:44;24.40;;;5.70;;
25263;SDS011;13211;51.796;5.808;2022-08-21T08:38:14;18.63;;;5.28;;
25263;SDS011;13211;51.796;5.808;2022-08-21T08:43:19;18.88;;;4.65;;
25263;SDS011;13211;51.796;5.808;2022-08-21T08:45:50;19.77;;;5.10;;
25263;SDS011;13211;51.796;5.808;2022-08-21T08:51:21;17.77;;;4.55;;
25263;SDS011;13211;51.796;5.808;2022-08-21T08:54:09;15.07;;;4.60;;
25263;SDS011;13211;51.796;5.808;2022-08-21T08:56:41;22.20;;;4.97;;
25263;SDS011;13211;51.796;5.808;2022-08-21T08:59:13;22.25;;;5.43;;
25263;SDS011;13211;51.796;5.808;2022-08-21T09:01:46;26.33;;;4.57;;
25263;SDS011;13211;51.796;5.808;2022-08-21T09:04:13;18.13;;;4.53;;
25263;SDS011;13211;51.796;5.808;2022-08-21T09:06:56;18.00;;;4.68;;
25263;SDS011;13211;51.796;5.808;2022-08-21T09:09:43;19.63;;;4.13;;
25263;SDS011;13211;51.796;5.808;2022-08-21T09:12:49;16.85;;;4.13;;
25263;SDS011;13211;51.796;5.808;2022-08-21T09:18:30;19.70;;;3.92;;
25263;SDS011;13211;51.796;5.808;2022-08-21T09:26:38;13.15;;;2.63;;
25263;SDS011;13211;51.796;5.808;2022-08-21T09:29:17;14.77;;;2.90;;
25263;SDS011;13211;51.796;5.808;2022-08-21T09:31:49;13.85;;;2.58;;
25263;SDS011;13211;51.796;5.808;2022-08-21T09:34:23;17.50;;;3.92;;
25263;SDS011;13211;51.796;5.808;2022-08-21T09:36:57;21.58;;;3.75;;
25263;SDS011;13211;51.796;5.808;2022-08-21T09:42:07;11.20;;;3.78;;
25263;SDS011;13211;51.796;5.808;2022-08-21T09:44:37;16.38;;;2.55;;
25263;SDS011;13211;51.796;5.808;2022-08-21T09:47:11;11.52;;;2.50;;
25263;SDS011;13211;51.796;5.808;2022-08-21T09:49:42;16.67;;;3.25;;
25263;SDS011;13211;51.796;5.808;2022-08-21T09:52:17;15.18;;;2.55;;
25263;SDS011;13211;51.796;5.808;2022-08-21T09:54:51;12.37;;;2.80;;
25263;SDS011;13211;51.796;5.808;2022-08-21T09:57:27;16.65;;;3.25;;
25263;SDS011;13211;51.796;5.808;2022-08-21T10:00:20;12.82;;;2.90;;
25263;SDS011;13211;51.796;5.808;2022-08-21T10:05:22;12.98;;;3.15;;
25263;SDS011;13211;51.796;5.808;2022-08-21T10:07:52;8.73;;;1.92;;
25263;SDS011;13211;51.796;5.808;2022-08-21T10:10:21;20.63;;;3.30;;
25263;SDS011;13211;51.796;5.808;2022-08-21T10:12:51;18.75;;;2.70;;
25263;SDS011;13211;51.796;5.808;2022-08-21T10:15:47;12.45;;;1.98;;
25263;SDS011;13211;51.796;5.808;2022-08-21T10:35:18;9.55;;;2.00;;
25263;SDS011;13211;51.796;5.808;2022-08-21T10:41:20;5.90;;;1.58;;
25263;SDS011;13211;51.796;5.808;2022-08-21T10:47:08;13.20;;;2.00;;
25263;SDS011;13211;51.796;5.808;2022-08-21T10:54:52;10.32;;;2.03;;
25263;SDS011;13211;51.796;5.808;2022-08-21T11:00:19;8.57;;;1.70;;
25263;SDS011;13211;51.796;5.808;2022-08-21T11:03:00;16.63;;;2.40;;
25263;SDS011;13211;51.796;5.808;2022-08-21T11:05:52;8.52;;;1.80;;
25263;SDS011;13211;51.796;5.808;2022-08-21T11:08:23;11.30;;;1.85;;
25263;SDS011;13211;51.796;5.808;2022-08-21T11:11:05;9.05;;;1.80;;
25263;SDS011;13211;51.796;5.808;2022-08-21T11:19:21;8.10;;;1.70;;
25263;SDS011;13211;51.796;5.808;2022-08-21T11:22:10;10.55;;;2.28;;
25263;SDS011;13211;51.796;5.808;2022-08-21T11:24:47;8.02;;;1.50;;
25263;SDS011;13211;51.796;5.808;2022-08-21T11:27:29;10.05;;;1.58;;
25263;SDS011;13211;51.796;5.808;2022-08-21T11:30:01;8.35;;;1.65;;
25263;SDS011;13211;51.796;5.808;2022-08-21T11:37:53;5.35;;;1.60;;
25263;SDS011;13211;51.796;5.808;2022-08-21T11:40:37;8.07;;;1.60;;
25263;SDS011;13211;51.796;5.808;2022-08-21T11:52:14;8.68;;;1.80;;
25263;SDS011;13211;51.796;5.808;2022-08-21T11:55:11;8.73;;;1.90;;
25263;SDS011;13211;51.796;5.808;2022-08-21T11:58:01;6.57;;;1.83;;
25263;SDS011;13211;51.796;5.808;2022-08-21T12:00:42;6.60;;;1.67;;
25263;SDS011;13211;51.796;5.808;2022-08-21T12:03:25;7.70;;;1.80;;
25263;SDS011;13211;51.796;5.808;2022-08-21T12:05:58;12.18;;;2.08;;
25263;SDS011;13211;51.796;5.808;2022-08-21T12:08:33;6.50;;;1.50;;
25263;SDS011;13211;51.796;5.808;2022-08-21T12:13:37;11.32;;;1.98;;
25263;SDS011;13211;51.796;5.808;2022-08-21T12:16:40;8.98;;;1.92;;
25263;SDS011;13211;51.796;5.808;2022-08-21T12:19:12;7.03;;;1.65;;
25263;SDS011;13211;51.796;5.808;2022-08-21T12:21:53;7.80;;;1.77;;
25263;SDS011;13211;51.796;5.808;2022-08-21T12:27:01;7.32;;;1.52;;
25263;SDS011;13211;51.796;5.808;2022-08-21T12:29:45;5.50;;;1.42;;
25263;SDS011;13211;51.796;5.808;2022-08-21T12:32:23;8.25;;;1.73;;
25263;SDS011;13211;51.796;5.808;2022-08-21T12:37:45;8.90;;;2.00;;
25263;SDS011;13211;51.796;5.808;2022-08-21T12:40:39;9.02;;;1.67;;
25263;SDS011;13211;51.796;5.808;2022-08-21T12:45:43;5.97;;;1.52;;
25263;SDS011;13211;51.796;5.808;2022-08-21T12:48:28;8.27;;;1.42;;
25263;SDS011;13211;51.796;5.808;2022-08-21T12:51:04;7.97;;;1.60;;
25263;SDS011;13211;51.796;5.808;2022-08-21T12:53:55;7.32;;;1.50;;
25263;SDS011;13211;51.796;5.808;2022-08-21T12:56:28;8.65;;;1.98;;
25263;SDS011;13211;51.796;5.808;2022-08-21T12:59:03;5.50;;;1.17;;
25263;SDS011;13211;51.796;5.808;2022-08-21T13:01:46;5.75;;;1.30;;
25263;SDS011;13211;51.796;5.808;2022-08-21T13:04:17;5.22;;;1.17;;
25263;SDS011;13211;51.796;5.808;2022-08-21T13:06:49;4.75;;;1.45;;
25263;SDS011;13211;51.796;5.808;2022-08-21T13:09:22;6.78;;;1.55;;
25263;SDS011;13211;51.796;5.808;2022-08-21T13:11:53;7.80;;;1.80;;
25263;SDS011;13211;51.796;5.808;2022-08-21T13:17:13;7.03;;;1.45;;
25263;SDS011;13211;51.796;5.808;2022-08-21T13:19:58;10.90;;;1.83;;
25263;SDS011;13211;51.796;5.808;2022-08-21T13:22:29;6.75;;;1.55;;
25263;SDS011;13211;51.796;5.808;2022-08-21T13:25:01;5.88;;;1.20;;
25263;SDS011;13211;51.796;5.808;2022-08-21T13:27:33;7.68;;;1.20;;
25263;SDS011;13211;51.796;5.808;2022-08-21T13:32:37;7.65;;;1.40;;
25263;SDS011;13211;51.796;5.808;2022-08-21T13:37:47;5.30;;;1.50;;
25263;SDS011;13211;51.796;5.808;2022-08-21T13:40:20;3.88;;;1.20;;
25263;SDS011;13211;51.796;5.808;2022-08-21T13:42:52;8.18;;;1.52;;
25263;SDS011;13211;51.796;5.808;2022-08-21T13:45:27;5.90;;;1.25;;
25263;SDS011;13211;51.796;5.808;2022-08-21T13:48:02;8.25;;;1.58;;
25263;SDS011;13211;51.796;5.808;2022-08-21T13:50:33;8.43;;;1.42;;
25263;SDS011;13211;51.796;5.808;2022-08-21T13:53:04;9.77;;;1.40;;
25263;SDS011;13211;51.796;5.808;2022-08-21T13:55:38;6.30;;;1.13;;
25263;SDS011;13211;51.796;5.808;2022-08-21T13:58:10;8.20;;;1.23;;
25263;SDS011;13211;51.796;5.808;2022-08-21T14:03:38;5.60;;;1.20;;
25263;SDS011;13211;51.796;5.808;2022-08-21T14:06:14;10.25;;;1.50;;
25263;SDS011;13211;51.796;5.808;2022-08-21T14:08:51;5.15;;;1.20;;
25263;SDS011;13211;51.796;5.808;2022-08-21T14:11:28;8.38;;;1.48;;
25263;SDS011;13211;51.796;5.808;2022-08-21T14:14:04;4.10;;;1.20;;
25263;SDS011;13211;51.796;5.808;2022-08-21T14:16:43;6.30;;;1.40;;
25263;SDS011;13211;51.796;5.808;2022-08-21T14:25:26;10.32;;;1.52;;
25263;SDS011;13211;51.796;5.808;2022-08-21T14:30:45;8.75;;;1.73;;
25263;SDS011;13211;51.796;5.808;2022-08-21T14:33:25;6.30;;;1.48;;
25263;SDS011;13211;51.796;5.808;2022-08-21T14:35:58;8.20;;;1.77;;
25263;SDS011;13211;51.796;5.808;2022-08-21T14:38:27;9.43;;;1.60;;
25263;SDS011;13211;51.796;5.808;2022-08-21T14:41:00;5.32;;;1.40;;
25263;SDS011;13211;51.796;5.808;2022-08-21T14:43:43;5.32;;;1.60;;
25263;SDS011;13211;51.796;5.808;2022-08-21T14:46:12;8.05;;;1.75;;
25263;SDS011;13211;51.796;5.808;2022-08-21T14:48:47;9.10;;;2.25;;
25263;SDS011;13211;51.796;5.808;2022-08-21T14:51:15;4.68;;;1.20;;
25263;SDS011;13211;51.796;5.808;2022-08-21T14:53:44;9.95;;;1.60;;
25263;SDS011;13211;51.796;5.808;2022-08-21T14:56:12;7.65;;;1.33;;
25263;SDS011;13211;51.796;5.808;2022-08-21T14:58:42;5.93;;;1.58;;
25263;SDS011;13211;51.796;5.808;2022-08-21T15:01:13;7.15;;;1.20;;
25263;SDS011;13211;51.796;5.808;2022-08-21T15:06:09;5.57;;;1.40;;
25263;SDS011;13211;51.796;5.808;2022-08-21T15:08:37;7.13;;;1.73;;
25263;SDS011;13211;51.796;5.808;2022-08-21T15:11:11;7.13;;;1.38;;
25263;SDS011;13211;51.796;5.808;2022-08-21T15:14:05;6.53;;;1.50;;
25263;SDS011;13211;51.796;5.808;2022-08-21T15:16:37;8.90;;;1.33;;
25263;SDS011;13211;51.796;5.808;2022-08-21T15:19:05;8.13;;;1.70;;
25263;SDS011;13211;51.796;5.808;2022-08-21T15:21:32;8.68;;;1.52;;
25263;SDS011;13211;51.796;5.808;2022-08-21T15:24:01;8.77;;;1.55;;
25263;SDS011;13211;51.796;5.808;2022-08-21T15:28:59;6.22;;;1.25;;
25263;SDS011;13211;51.796;5.808;2022-08-21T15:31:32;7.18;;;1.85;;
25263;SDS011;13211;51.796;5.808;2022-08-21T15:34:02;6.22;;;1.17;;
25263;SDS011;13211;51.796;5.808;2022-08-21T15:36:31;11.57;;;1.80;;
25263;SDS011;13211;51.796;5.808;2022-08-21T15:38:59;8.13;;;1.60;;
25263;SDS011;13211;51.796;5.808;2022-08-21T15:41:28;5.97;;;1.55;;
25263;SDS011;13211;51.796;5.808;2022-08-21T15:43:59;7.93;;;1.58;;
25263;SDS011;13211;51.796;5.808;2022-08-21T15:46:28;5.23;;;1.63;;
25263;SDS011;13211;51.796;5.808;2022-08-21T15:48:58;9.63;;;1.67;;
25263;SDS011;13211;51.796;5.808;2022-08-21T15:51:31;8.38;;;1.55;;
25263;SDS011;13211;51.796;5.808;2022-08-21T15:54:09;10.40;;;2.05;;
25263;SDS011;13211;51.796;5.808;2022-08-21T15:56:40;7.53;;;2.00;;
25263;SDS011;13211;51.796;5.808;2022-08-21T15:59:17;7.55;;;1.63;;
25263;SDS011;13211;51.796;5.808;2022-08-21T16:01:49;6.13;;;1.85;;
25263;SDS011;13211;51.796;5.808;2022-08-21T16:04:21;8.57;;;1.42;;
25263;SDS011;13211;51.796;5.808;2022-08-21T16:06:51;8.82;;;1.90;;
25263;SDS011;13211;51.796;5.808;2022-08-21T16:09:29;5.95;;;1.48;;
25263;SDS011;13211;51.796;5.808;2022-08-21T16:11:58;8.73;;;1.60;;
25263;SDS011;13211;51.796;5.808;2022-08-21T16:14:31;5.88;;;1.48;;
25263;SDS011;13211;51.796;5.808;2022-08-21T16:17:03;5.57;;;1.50;;
25263;SDS011;13211;51.796;5.808;2022-08-21T16:19:33;5.80;;;1.67;;
25263;SDS011;13211;51.796;5.808;2022-08-21T16:22:03;6.70;;;1.52;;
25263;SDS011;13211;51.796;5.808;2022-08-21T16:24:34;5.57;;;1.52;;
25263;SDS011;13211;51.796;5.808;2022-08-21T16:27:07;4.35;;;1.70;;
25263;SDS011;13211;51.796;5.808;2022-08-21T16:29:36;8.88;;;2.00;;
25263;SDS011;13211;51.796;5.808;2022-08-21T16:32:05;8.35;;;1.80;;
25263;SDS011;13211;51.796;5.808;2022-08-21T16:34:34;9.50;;;1.55;;
25263;SDS011;13211;51.796;5.808;2022-08-21T16:37:04;13.70;;;2.00;;
25263;SDS011;13211;51.796;5.808;2022-08-21T16:39:31;9.68;;;1.70;;
25263;SDS011;13211;51.796;5.808;2022-08-21T16:41:58;10.25;;;2.65;;
25263;SDS011;13211;51.796;5.808;2022-08-21T16:44:32;6.28;;;1.92;;
25263;SDS011;13211;51.796;5.808;2022-08-21T16:47:02;10.25;;;1.90;;
25263;SDS011;13211;51.796;5.808;2022-08-21T16:49:31;7.00;;;1.80;;
25263;SDS011;13211;51.796;5.808;2022-08-21T16:52:01;7.97;;;2.45;;
25263;SDS011;13211;51.796;5.808;2022-08-21T16:54:30;7.53;;;1.48;;
25263;SDS011;13211;51.796;5.808;2022-08-21T16:56:58;6.75;;;1.90;;
25263;SDS011;13211;51.796;5.808;2022-08-21T16:59:27;7.32;;;2.10;;
25263;SDS011;13211;51.796;5.808;2022-08-21T17:01:55;8.30;;;3.53;;